Terminal Aerodrome Forecast
Issued by NWS Quad Cities IA IL

Home | Current Version | Previous Version | Graphics & Text | Print | Product List | Glossary On
Versions: 1 2 3 4 5 6 7 8 9 10 11 12 13 14 15 16 17 18 19 20 21 22 23 24 25 26 27 28 29
000
FTUS43 KDVN 151700
TAFMLI
TAF
KMLI 151720Z 1518/1618 30013G20KT P6SM SCT050
     FM152100 29009KT P6SM SKC
     FM160800 13013KT P6SM BKN200
     FM161400 18022G32KT P6SM BKN200=

USA.gov is the U.S. government's official web portal to all federal, state and local government web resources and services.